createdAt,value
2018-09-17T00:00:32.713Z,14.90
2018-09-17T00:03:01.115Z,14.90
2018-09-17T00:05:29.549Z,14.80
2018-09-17T00:07:57.933Z,14.80
2018-09-17T00:10:26.322Z,14.80
2018-09-17T00:12:54.756Z,14.80
2018-09-17T00:15:23.151Z,14.80
2018-09-17T00:17:51.602Z,14.70
2018-09-17T00:20:20.269Z,14.70
2018-09-17T00:22:48.649Z,14.70
2018-09-17T00:25:17.638Z,14.80
2018-09-17T00:27:46.070Z,14.70
2018-09-17T00:30:14.565Z,14.80
2018-09-17T00:32:42.952Z,14.70
2018-09-17T00:35:11.417Z,14.70
2018-09-17T00:37:39.817Z,14.70
2018-09-17T00:40:08.261Z,14.60
2018-09-17T00:42:36.672Z,14.60
2018-09-17T00:45:05.366Z,14.60
2018-09-17T00:47:33.728Z,14.50
2018-09-17T00:50:02.184Z,14.50
2018-09-17T00:52:30.570Z,14.50
2018-09-17T00:54:58.922Z,14.50
2018-09-17T00:57:27.380Z,14.40
2018-09-17T00:59:55.785Z,14.40
2018-09-17T01:02:24.181Z,14.40
2018-09-17T01:04:52.640Z,14.40
2018-09-17T01:07:21.282Z,14.50
2018-09-17T01:09:49.646Z,14.50
2018-09-17T01:12:18.118Z,14.50
2018-09-17T01:14:46.525Z,14.50
2018-09-17T01:17:14.871Z,14.50
2018-09-17T01:19:43.299Z,14.50
2018-09-17T01:22:11.669Z,14.50
2018-09-17T01:24:40.104Z,14.50
2018-09-17T01:27:08.519Z,14.50
2018-09-17T01:29:36.904Z,14.50
2018-09-17T01:32:05.322Z,14.50
2018-09-17T01:34:33.772Z,14.40
2018-09-17T01:37:02.136Z,14.40
2018-09-17T01:39:30.520Z,14.40
2018-09-17T01:41:58.929Z,14.40
2018-09-17T01:44:27.332Z,14.40
2018-09-17T01:46:55.764Z,14.40
2018-09-17T01:49:24.242Z,14.30
2018-09-17T01:51:52.633Z,14.30
2018-09-17T01:54:21.056Z,14.30
2018-09-17T01:56:49.464Z,14.20
2018-09-17T01:59:17.862Z,14.20
2018-09-17T02:01:46.277Z,14.20
2018-09-17T02:04:14.698Z,14.20
2018-09-17T02:06:43.138Z,14.20
2018-09-17T02:09:11.625Z,14.20
2018-09-17T02:11:40.032Z,14.20
2018-09-17T02:14:08.477Z,14.20
2018-09-17T02:16:36.877Z,14.20
2018-09-17T02:19:05.401Z,14.20
2018-09-17T02:21:33.836Z,14.20
2018-09-17T02:24:02.211Z,14.20
2018-09-17T02:26:30.665Z,14.20
2018-09-17T02:28:59.054Z,14.20
2018-09-17T02:31:27.493Z,14.10
2018-09-17T02:33:55.913Z,14.10
2018-09-17T02:36:24.301Z,14.00
2018-09-17T02:38:52.718Z,14.00
2018-09-17T02:41:21.191Z,14.00
2018-09-17T02:43:49.617Z,13.90
2018-09-17T02:46:18.002Z,13.90
2018-09-17T02:48:46.450Z,13.90
2018-09-17T02:51:14.894Z,13.90
2018-09-17T02:53:43.351Z,13.90
2018-09-17T02:56:11.814Z,13.90
2018-09-17T02:58:40.220Z,13.90
2018-09-17T03:01:08.640Z,13.90
2018-09-17T03:03:37.138Z,13.90
2018-09-17T03:06:05.554Z,13.90
2018-09-17T03:08:33.935Z,13.80
2018-09-17T03:11:02.361Z,13.80
2018-09-17T03:13:30.738Z,13.80
2018-09-17T03:15:59.128Z,13.80
2018-09-17T03:18:39.409Z,13.80
2018-09-17T03:21:08.326Z,13.70
2018-09-17T03:23:38.229Z,13.70
2018-09-17T03:26:06.748Z,13.70
2018-09-17T03:28:35.163Z,13.70
2018-09-17T03:31:03.587Z,13.70
2018-09-17T03:33:32.025Z,13.60
2018-09-17T03:36:00.517Z,13.60
2018-09-17T03:38:44.858Z,13.60
2018-09-17T03:41:13.925Z,13.60
2018-09-17T03:43:43.517Z,13.60
2018-09-17T03:46:11.946Z,13.60
2018-09-17T03:48:41.047Z,13.50
2018-09-17T03:51:09.948Z,13.60
2018-09-17T03:53:38.662Z,13.50
2018-09-17T03:56:07.042Z,13.50
2018-09-17T03:58:35.441Z,13.50
2018-09-17T04:01:04.210Z,13.50
2018-09-17T04:03:32.644Z,13.50
2018-09-17T04:06:01.013Z,13.50
2018-09-17T04:08:32.018Z,13.50
2018-09-17T04:11:00.462Z,13.50
2018-09-17T04:13:28.951Z,13.50
2018-09-17T04:15:58.341Z,13.50
2018-09-17T04:18:26.756Z,13.50
2018-09-17T04:20:55.173Z,13.50
2018-09-17T04:23:31.625Z,13.50
2018-09-17T04:26:00.098Z,13.50
2018-09-17T04:28:28.505Z,13.40
2018-09-17T04:30:57.021Z,13.50
2018-09-17T04:33:25.876Z,13.50
2018-09-17T04:35:54.247Z,13.50
2018-09-17T04:38:22.687Z,13.40
2018-09-17T04:40:51.175Z,13.40
2018-09-17T04:43:19.559Z,13.50
2018-09-17T04:45:47.992Z,13.50
2018-09-17T04:48:16.412Z,13.40
2018-09-17T04:50:44.790Z,13.40
2018-09-17T04:53:13.228Z,13.40
2018-09-17T04:55:41.609Z,13.40
2018-09-17T04:58:10.001Z,13.40
2018-09-17T05:00:38.461Z,13.40
2018-09-17T05:03:06.836Z,13.30
2018-09-17T05:05:35.670Z,13.40
2018-09-17T05:08:04.145Z,13.40
2018-09-17T05:10:32.565Z,13.40
2018-09-17T05:13:01.336Z,14.10
2018-09-17T05:15:29.766Z,13.40
2018-09-17T05:17:58.197Z,13.50
2018-09-17T05:20:26.638Z,13.50
2018-09-17T05:22:55.104Z,13.60
2018-09-17T05:25:23.530Z,13.60
2018-09-17T05:27:51.891Z,13.70
2018-09-17T05:30:20.402Z,13.80
2018-09-17T05:32:48.865Z,13.90
2018-09-17T05:35:21.244Z,13.90
2018-09-17T05:37:49.631Z,14.00
2018-09-17T05:40:18.068Z,14.00
2018-09-17T05:42:46.498Z,14.10
2018-09-17T05:45:14.861Z,14.20
2018-09-17T05:47:43.236Z,14.20
2018-09-17T05:50:11.660Z,14.30
2018-09-17T05:52:40.029Z,14.40
2018-09-17T05:55:08.462Z,14.50
2018-09-17T05:57:36.882Z,14.50
2018-09-17T06:00:06.690Z,14.70
2018-09-17T06:02:35.105Z,14.70
2018-09-17T06:05:03.793Z,14.80
2018-09-17T06:07:32.193Z,15.00
2018-09-17T06:10:00.725Z,15.10
2018-09-17T06:12:29.329Z,15.20
2018-09-17T06:14:57.705Z,15.40
2018-09-17T06:17:26.351Z,15.60
2018-09-17T06:19:54.777Z,15.90
2018-09-17T06:22:23.173Z,16.00
2018-09-17T06:24:51.628Z,16.10
2018-09-17T06:27:20.181Z,16.20
2018-09-17T06:29:48.597Z,16.30
2018-09-17T06:32:17.127Z,16.30
2018-09-17T06:34:45.562Z,16.40
2018-09-17T06:37:14.078Z,16.40
2018-09-17T06:39:42.496Z,16.40
2018-09-17T06:42:10.939Z,16.60
2018-09-17T06:44:39.987Z,16.70
2018-09-17T06:47:08.371Z,16.80
2018-09-17T06:49:36.844Z,17.10
2018-09-17T06:52:05.261Z,17.10
2018-09-17T06:54:33.686Z,17.20
2018-09-17T06:57:02.157Z,17.30
2018-09-17T06:59:31.296Z,17.30
2018-09-17T07:01:59.726Z,17.50
2018-09-17T07:04:28.177Z,17.60
2018-09-17T07:06:56.932Z,17.70
2018-09-17T07:09:25.383Z,17.80
2018-09-17T07:11:53.835Z,17.90
2018-09-17T07:14:22.251Z,18.10
2018-09-17T07:16:50.645Z,18.30
2018-09-17T07:19:19.060Z,18.60
2018-09-17T07:21:47.480Z,19.00
2018-09-17T07:24:15.881Z,19.20
2018-09-17T07:26:44.326Z,19.20
2018-09-17T07:29:12.750Z,19.20
2018-09-17T07:31:41.170Z,19.10
2018-09-17T07:34:09.745Z,19.10
2018-09-17T07:36:38.234Z,19.20
2018-09-17T07:39:10.257Z,19.20
2018-09-17T07:41:38.928Z,19.00
2018-09-17T07:44:07.341Z,18.90
2018-09-17T07:46:35.845Z,19.00
2018-09-17T07:49:04.345Z,19.10
2018-09-17T07:51:32.800Z,19.30
2018-09-17T07:54:01.301Z,19.30
2018-09-17T07:56:30.000Z,19.40
2018-09-17T07:58:58.495Z,19.50
2018-09-17T08:01:26.939Z,19.60
2018-09-17T08:03:55.357Z,19.80
2018-09-17T08:06:23.765Z,19.90
2018-09-17T08:08:52.209Z,20.20
2018-09-17T08:11:20.653Z,20.00
2018-09-17T08:13:49.210Z,20.50
2018-09-17T08:16:17.665Z,20.60
2018-09-17T08:18:46.074Z,20.70
2018-09-17T08:21:14.455Z,20.90
2018-09-17T08:23:42.921Z,21.30
2018-09-17T08:26:11.326Z,21.60
2018-09-17T08:28:39.742Z,21.90
2018-09-17T08:31:08.245Z,22.20
2018-09-17T08:33:37.080Z,22.30
2018-09-17T08:36:05.582Z,22.50
2018-09-17T08:38:33.994Z,22.50
2018-09-17T08:41:03.290Z,22.40
2018-09-17T08:43:31.664Z,22.50
2018-09-17T08:46:00.145Z,22.50
2018-09-17T08:48:28.563Z,22.40
2018-09-17T08:50:57.163Z,22.50
2018-09-17T08:53:25.617Z,22.80
2018-09-17T08:56:00.325Z,23.00
2018-09-17T08:58:35.360Z,23.00
2018-09-17T09:01:08.009Z,23.00
2018-09-17T09:03:38.404Z,23.00
2018-09-17T09:06:12.229Z,23.10
2018-09-17T09:08:40.669Z,23.10
2018-09-17T09:11:14.325Z,23.20
2018-09-17T09:13:48.265Z,23.40
2018-09-17T09:16:16.680Z,23.40
2018-09-17T09:18:45.061Z,23.20
2018-09-17T09:21:13.557Z,23.20
2018-09-17T09:23:42.012Z,23.10
2018-09-17T09:26:10.443Z,23.00
2018-09-17T09:28:38.839Z,23.10
2018-09-17T09:31:07.292Z,23.20
2018-09-17T09:33:35.673Z,23.10
2018-09-17T09:36:04.241Z,23.20
2018-09-17T09:38:32.633Z,23.40
2018-09-17T09:41:01.007Z,23.70
2018-09-17T09:43:29.533Z,23.90
2018-09-17T09:45:57.966Z,23.80
2018-09-17T09:48:26.439Z,24.00
2018-09-17T09:50:54.949Z,23.80
2018-09-17T09:53:23.342Z,23.90
2018-09-17T09:55:51.745Z,24.00
2018-09-17T09:58:20.265Z,23.90
2018-09-17T10:00:54.014Z,23.70
2018-09-17T10:03:27.865Z,23.70
2018-09-17T10:05:56.273Z,23.70
2018-09-17T10:08:24.682Z,23.60
2018-09-17T10:10:58.493Z,23.60
2018-09-17T10:13:32.225Z,23.60
2018-09-17T10:16:04.897Z,23.60
2018-09-17T10:18:38.863Z,23.80
2018-09-17T10:21:06.989Z,23.90
2018-09-17T10:23:35.446Z,23.80
2018-09-17T10:26:03.893Z,23.80
2018-09-17T10:28:32.329Z,23.80
2018-09-17T10:31:00.798Z,23.90
2018-09-17T10:33:29.230Z,23.90
2018-09-17T10:35:57.970Z,23.80
2018-09-17T10:38:26.390Z,23.80
2018-09-17T10:40:54.777Z,23.80
2018-09-17T10:43:23.217Z,23.80
2018-09-17T10:45:51.832Z,23.90
2018-09-17T10:48:20.197Z,24.00
2018-09-17T10:50:48.645Z,24.10
2018-09-17T10:53:17.089Z,24.10
2018-09-17T10:55:45.509Z,24.10
2018-09-17T10:58:13.935Z,24.10
2018-09-17T11:00:42.401Z,24.30
2018-09-17T11:03:10.842Z,24.40
2018-09-17T11:05:39.293Z,24.40
2018-09-17T11:08:07.723Z,24.40
2018-09-17T11:10:36.277Z,24.30
2018-09-17T11:13:05.629Z,24.30
2018-09-17T11:15:39.353Z,24.30
2018-09-17T11:18:07.820Z,24.40
2018-09-17T11:20:36.277Z,24.50
2018-09-17T11:23:05.666Z,24.70
2018-09-17T11:25:34.098Z,24.90
2018-09-17T11:28:02.500Z,25.00
2018-09-17T11:30:30.901Z,24.80
2018-09-17T11:32:59.357Z,24.90
2018-09-17T11:35:27.812Z,25.00
2018-09-17T11:37:56.218Z,24.90
2018-09-17T11:40:24.685Z,24.70
2018-09-17T11:42:53.179Z,24.70
2018-09-17T11:45:21.546Z,24.70
2018-09-17T11:47:50.005Z,24.80
2018-09-17T11:50:18.426Z,24.80
2018-09-17T11:52:46.853Z,24.70
2018-09-17T11:55:15.424Z,24.50
2018-09-17T11:57:43.832Z,24.30
2018-09-17T12:00:16.237Z,24.30
2018-09-17T12:02:49.834Z,24.50
2018-09-17T12:05:23.649Z,24.50
2018-09-17T12:07:52.057Z,24.50
2018-09-17T12:10:20.482Z,24.60
2018-09-17T12:12:48.937Z,24.60
2018-09-17T12:15:17.333Z,24.70
2018-09-17T12:17:45.724Z,24.70
2018-09-17T12:20:14.161Z,24.60
2018-09-17T12:22:42.540Z,24.60
2018-09-17T12:25:10.953Z,24.60
2018-09-17T12:27:39.480Z,24.70
2018-09-17T12:30:07.893Z,24.70
2018-09-17T12:32:37.015Z,24.70
2018-09-17T12:35:05.469Z,24.70
2018-09-17T12:37:33.898Z,24.70
2018-09-17T12:40:02.368Z,24.50
2018-09-17T12:42:30.816Z,24.50
2018-09-17T12:44:59.276Z,24.50
2018-09-17T12:47:27.661Z,24.50
2018-09-17T12:49:56.093Z,24.50
2018-09-17T12:52:24.775Z,24.50
2018-09-17T12:54:53.236Z,24.60
2018-09-17T12:57:21.738Z,24.60
2018-09-17T12:59:50.033Z,24.60
2018-09-17T13:02:18.480Z,24.60
2018-09-17T13:04:47.131Z,24.50
2018-09-17T13:07:15.501Z,24.50
2018-09-17T13:09:43.891Z,24.60
2018-09-17T13:12:12.550Z,24.70
2018-09-17T13:14:41.022Z,24.60
2018-09-17T13:17:09.410Z,24.60
2018-09-17T13:19:37.895Z,24.50
2018-09-17T13:22:06.409Z,24.50
2018-09-17T13:24:34.817Z,24.40
2018-09-17T13:27:03.273Z,24.30
2018-09-17T13:29:31.771Z,24.30
2018-09-17T13:32:00.245Z,24.30
2018-09-17T13:34:28.682Z,24.30
2018-09-17T13:36:58.061Z,24.40
2018-09-17T13:39:26.593Z,24.40
2018-09-17T13:41:55.098Z,24.40
2018-09-17T13:44:23.567Z,24.40
2018-09-17T13:46:51.903Z,24.50
2018-09-17T13:49:20.358Z,24.40
2018-09-17T13:51:48.741Z,24.40
2018-09-17T13:54:17.172Z,24.50
2018-09-17T13:56:45.636Z,24.50
2018-09-17T13:59:14.645Z,24.50
2018-09-17T14:01:43.126Z,24.60
2018-09-17T14:04:12.505Z,24.60
2018-09-17T14:06:40.843Z,24.60
2018-09-17T14:09:10.768Z,24.60
2018-09-17T14:11:39.879Z,24.60
2018-09-17T14:14:08.327Z,24.40
2018-09-17T14:16:36.742Z,24.40
2018-09-17T14:19:05.406Z,24.40
2018-09-17T14:21:33.847Z,24.40
2018-09-17T14:24:02.292Z,24.40
2018-09-17T14:26:30.788Z,24.50
2018-09-17T14:28:59.285Z,24.50
2018-09-17T14:31:33.193Z,24.50
2018-09-17T14:34:01.678Z,24.50
2018-09-17T14:36:30.107Z,24.50
2018-09-17T14:38:58.582Z,24.40
2018-09-17T14:41:27.004Z,24.40
2018-09-17T14:43:55.426Z,24.40
2018-09-17T14:46:24.085Z,24.40
2018-09-17T14:48:52.606Z,24.40
2018-09-17T14:51:20.982Z,24.30
2018-09-17T14:53:49.450Z,24.30
2018-09-17T14:56:17.912Z,24.30
2018-09-17T14:58:46.308Z,24.30
2018-09-17T15:01:14.748Z,24.30
2018-09-17T15:03:43.658Z,24.30
2018-09-17T15:06:12.080Z,24.30
2018-09-17T15:08:40.637Z,24.30
2018-09-17T15:11:09.137Z,24.30
2018-09-17T15:13:37.569Z,24.20
2018-09-17T15:16:06.108Z,24.30
2018-09-17T15:18:34.569Z,24.30
2018-09-17T15:21:03.104Z,24.20
2018-09-17T15:23:31.581Z,24.20
2018-09-17T15:26:00.060Z,24.20
2018-09-17T15:28:28.556Z,24.10
2018-09-17T15:30:57.055Z,24.10
2018-09-17T15:33:26.136Z,24.10
2018-09-17T15:35:54.673Z,24.00
2018-09-17T15:38:23.261Z,24.10
2018-09-17T15:40:51.845Z,24.10
2018-09-17T15:43:20.457Z,24.10
2018-09-17T15:45:48.921Z,24.10
2018-09-17T15:48:17.372Z,24.10
2018-09-17T15:50:45.793Z,24.10
2018-09-17T15:53:14.258Z,24.10
2018-09-17T15:55:42.656Z,24.10
2018-09-17T15:58:11.071Z,24.00
2018-09-17T16:00:39.573Z,24.00
2018-09-17T16:03:07.997Z,24.00
2018-09-17T16:05:37.248Z,23.90
2018-09-17T16:08:06.145Z,23.90
2018-09-17T16:10:34.560Z,23.80
2018-09-17T16:13:03.009Z,23.80
2018-09-17T16:15:31.465Z,23.70
2018-09-17T16:17:59.904Z,23.60
2018-09-17T16:20:28.301Z,23.60
2018-09-17T16:22:56.751Z,23.60
2018-09-17T16:25:25.112Z,23.60
2018-09-17T16:27:53.468Z,23.50
2018-09-17T16:30:21.938Z,23.50
2018-09-17T16:32:50.350Z,23.40
2018-09-17T16:35:18.741Z,23.30
2018-09-17T16:37:47.197Z,23.30
2018-09-17T16:40:15.580Z,23.20
2018-09-17T16:42:44.924Z,23.10
2018-09-17T16:45:13.425Z,23.10
2018-09-17T16:47:41.880Z,23.00
2018-09-17T16:50:10.293Z,22.90
2018-09-17T16:52:38.857Z,22.80
2018-09-17T16:55:07.241Z,22.70
2018-09-17T16:57:35.637Z,22.70
2018-09-17T17:00:04.401Z,22.60
2018-09-17T17:02:32.821Z,22.50
2018-09-17T17:05:01.299Z,22.50
2018-09-17T17:07:29.765Z,22.30
2018-09-17T17:09:58.162Z,22.30
2018-09-17T17:12:26.570Z,22.20
2018-09-17T17:14:55.021Z,22.20
2018-09-17T17:17:23.470Z,22.00
2018-09-17T17:19:51.862Z,22.00
2018-09-17T17:22:20.421Z,21.90
2018-09-17T17:24:48.821Z,21.80
2018-09-17T17:27:17.277Z,21.70
2018-09-17T17:29:45.722Z,21.60
2018-09-17T17:32:15.098Z,21.50
2018-09-17T17:34:43.551Z,21.40
2018-09-17T17:37:12.029Z,21.30
2018-09-17T17:39:40.574Z,21.20
2018-09-17T17:42:08.969Z,21.10
2018-09-17T17:44:37.421Z,21.10
2018-09-17T17:47:05.939Z,21.00
2018-09-17T17:49:34.458Z,20.90
2018-09-17T17:52:02.976Z,20.80
2018-09-17T17:54:31.444Z,20.70
2018-09-17T17:56:59.886Z,20.60
2018-09-17T17:59:28.400Z,20.50
2018-09-17T18:01:56.841Z,20.50
2018-09-17T18:04:25.271Z,20.40
2018-09-17T18:06:53.762Z,20.40
2018-09-17T18:09:22.242Z,20.30
2018-09-17T18:11:51.117Z,20.30
2018-09-17T18:14:19.676Z,20.20
2018-09-17T18:16:48.098Z,20.10
2018-09-17T18:19:16.849Z,20.10
2018-09-17T18:21:45.397Z,20.00
2018-09-17T18:24:13.819Z,20.00
2018-09-17T18:26:42.240Z,19.90
2018-09-17T18:29:10.809Z,19.90
2018-09-17T18:31:39.243Z,19.80
2018-09-17T18:34:07.689Z,19.80
2018-09-17T18:36:36.270Z,19.70
2018-09-17T18:39:06.477Z,19.70
2018-09-17T18:41:34.904Z,19.60
2018-09-17T18:44:03.414Z,19.60
2018-09-17T18:46:31.866Z,19.50
2018-09-17T18:49:00.324Z,19.50
2018-09-17T18:51:28.818Z,19.50
2018-09-17T18:53:57.387Z,19.40
2018-09-17T18:56:25.710Z,19.30
2018-09-17T18:58:54.388Z,19.30
2018-09-17T19:01:22.806Z,19.30
2018-09-17T19:03:51.304Z,19.30
2018-09-17T19:06:19.917Z,19.20
2018-09-17T19:08:48.579Z,19.10
2018-09-17T19:11:17.466Z,19.10
2018-09-17T19:13:51.430Z,19.10
2018-09-17T19:16:24.085Z,19.00
2018-09-17T19:18:52.642Z,19.00
2018-09-17T19:21:21.204Z,19.00
2018-09-17T19:24:05.694Z,18.90
2018-09-17T19:26:34.114Z,18.80
2018-09-17T19:29:08.174Z,18.80
2018-09-17T19:31:36.518Z,18.70
2018-09-17T19:34:05.020Z,18.70
2018-09-17T19:36:33.524Z,18.70
2018-09-17T19:39:07.403Z,18.70
2018-09-17T19:41:35.953Z,18.60
2018-09-17T19:44:04.422Z,18.60
2018-09-17T19:46:32.920Z,18.50
2018-09-17T19:49:01.380Z,18.40
2018-09-17T19:51:35.222Z,18.50
2018-09-17T19:54:03.767Z,18.40
2018-09-17T19:56:32.300Z,18.30
2018-09-17T19:59:06.257Z,18.30
2018-09-17T20:01:34.701Z,18.20
2018-09-17T20:04:08.720Z,18.20
2018-09-17T20:06:37.236Z,18.20
2018-09-17T20:09:08.439Z,18.10
2018-09-17T20:11:37.790Z,18.10
2018-09-17T20:14:06.290Z,18.00
2018-09-17T20:16:34.766Z,18.00
2018-09-17T20:19:03.171Z,17.90
2018-09-17T20:21:31.625Z,17.90
2018-09-17T20:24:00.085Z,17.90
2018-09-17T20:26:28.785Z,17.90
2018-09-17T20:28:57.233Z,18.00
2018-09-17T20:31:25.893Z,18.00
2018-09-17T20:33:54.322Z,17.90
2018-09-17T20:36:22.754Z,17.90
2018-09-17T20:38:51.318Z,17.80
2018-09-17T20:41:19.817Z,17.80
2018-09-17T20:43:48.226Z,17.80
2018-09-17T20:46:16.744Z,17.80
2018-09-17T20:48:45.234Z,17.70
2018-09-17T20:51:13.634Z,17.70
2018-09-17T20:53:42.161Z,17.70
2018-09-17T20:56:10.637Z,17.60
2018-09-17T20:58:39.078Z,17.60
2018-09-17T21:01:07.890Z,17.60
2018-09-17T21:03:36.178Z,17.50
2018-09-17T21:06:04.578Z,17.50
2018-09-17T21:08:33.030Z,17.40
2018-09-17T21:11:01.433Z,17.40
2018-09-17T21:13:30.119Z,17.40
2018-09-17T21:15:58.577Z,17.40
2018-09-17T21:18:26.970Z,17.30
2018-09-17T21:20:55.403Z,17.40
2018-09-17T21:23:24.704Z,17.40
2018-09-17T21:25:53.157Z,17.40
2018-09-17T21:28:21.643Z,17.30
2018-09-17T21:30:50.537Z,17.30
2018-09-17T21:33:19.844Z,17.20
2018-09-17T21:35:48.302Z,17.20
2018-09-17T21:38:16.738Z,17.10
2018-09-17T21:40:45.271Z,17.10
2018-09-17T21:43:13.752Z,17.10
2018-09-17T21:45:42.318Z,17.00
2018-09-17T21:48:10.741Z,17.00
2018-09-17T21:50:39.281Z,17.00
2018-09-17T21:53:07.767Z,17.00
2018-09-17T21:55:36.221Z,17.00
2018-09-17T21:58:11.560Z,17.00
2018-09-17T22:00:45.286Z,17.00
2018-09-17T22:03:13.952Z,16.90
2018-09-17T22:05:42.450Z,16.90
2018-09-17T22:08:10.871Z,16.90
2018-09-17T22:10:39.380Z,16.90
2018-09-17T22:13:07.836Z,16.90
2018-09-17T22:15:36.257Z,16.80
2018-09-17T22:18:04.746Z,16.80
2018-09-17T22:20:33.165Z,16.80
2018-09-17T22:23:01.605Z,16.80
2018-09-17T22:25:30.110Z,16.80
2018-09-17T22:27:58.489Z,16.80
2018-09-17T22:30:26.880Z,16.80
2018-09-17T22:32:55.333Z,16.80
2018-09-17T22:35:23.699Z,16.80
2018-09-17T22:37:52.201Z,16.70
2018-09-17T22:40:21.195Z,16.70
2018-09-17T22:42:49.643Z,16.70
2018-09-17T22:45:18.058Z,16.70
2018-09-17T22:47:46.551Z,16.60
2018-09-17T22:50:15.049Z,16.60
2018-09-17T22:52:43.460Z,16.50
2018-09-17T22:55:11.954Z,16.50
2018-09-17T22:57:40.349Z,16.40
2018-09-17T23:00:08.807Z,16.40
2018-09-17T23:02:37.249Z,16.30
2018-09-17T23:05:05.690Z,16.30
2018-09-17T23:07:34.078Z,16.30
2018-09-17T23:10:02.574Z,16.30
2018-09-17T23:12:30.970Z,16.20
2018-09-17T23:14:59.368Z,16.20
2018-09-17T23:17:27.808Z,16.20
2018-09-17T23:19:56.213Z,16.20
2018-09-17T23:22:24.592Z,16.20
2018-09-17T23:24:53.029Z,16.30
2018-09-17T23:27:21.549Z,16.30
2018-09-17T23:29:49.937Z,16.30
2018-09-17T23:32:18.495Z,16.30
2018-09-17T23:34:47.052Z,16.30
2018-09-17T23:37:15.457Z,16.30
2018-09-17T23:39:43.901Z,16.30
2018-09-17T23:42:12.297Z,16.30
2018-09-17T23:44:40.743Z,16.30
2018-09-17T23:47:09.587Z,16.30
2018-09-17T23:49:38.040Z,16.30
2018-09-17T23:52:06.585Z,16.40
2018-09-17T23:54:35.049Z,16.30
2018-09-17T23:57:03.446Z,16.30
2018-09-17T23:59:31.905Z,16.30
